Time;durP1;ratioP1;P1;durP2;ratioP2;P2;SDS_P1;SDS_P2;PMS_P1;PMS_P2;Temp;Humidity;BMP_temperature;BMP_pressure;BME280_temperature;BME280_humidity;BME280_pressure;Samples;Min_cycle;Max_cycle;Signal;HPM_P1;HPM_P2
2024/04/02 00:00:10;;;;;;;6.17;3.03;;;;;;;9.31;100.00;99747.03;6125270;28;20231;-76
2024/04/02 00:03:30;;;;;;;5.70;3.17;;;;;;;9.30;100.00;99752.56;6102535;28;20236;-77
2024/04/02 00:06:53;;;;;;;4.67;3.20;;;;;;;9.30;100.00;99748.03;6115818;28;20228;-77
2024/04/02 00:10:13;;;;;;;4.17;2.93;;;;;;;9.29;100.00;99756.22;6104361;28;20235;-76
2024/04/02 00:13:41;;;;;;;5.60;3.63;;;;;;;9.23;100.00;99760.41;6125454;28;20239;-78
2024/04/02 00:17:02;;;;;;;6.20;4.07;;;;;;;9.27;100.00;99753.72;6110470;28;20609;-76
2024/04/02 00:20:22;;;;;;;6.37;3.60;;;;;;;9.23;100.00;99756.84;6116945;28;20223;-76
2024/04/02 00:23:43;;;;;;;3.40;2.30;;;;;;;9.22;100.00;99766.75;6118793;28;20247;-76
2024/04/02 00:27:03;;;;;;;2.90;2.43;;;;;;;9.20;100.00;99771.44;6134530;28;20567;-76
2024/04/02 00:30:27;;;;;;;2.83;2.33;;;;;;;9.20;100.00;99759.88;6113768;28;20883;-76
2024/04/02 00:33:48;;;;;;;4.80;3.53;;;;;;;9.18;100.00;99765.38;6129575;28;20266;-77
2024/04/02 00:37:08;;;;;;;2.60;2.40;;;;;;;9.17;100.00;99766.41;6136837;28;20231;-75
2024/04/02 00:40:29;;;;;;;4.10;2.67;;;;;;;9.18;100.00;99773.44;6116733;28;20227;-76
2024/04/02 00:43:49;;;;;;;4.90;2.23;;;;;;;9.17;100.00;99787.91;6127115;28;20231;-76
2024/04/02 00:47:13;;;;;;;3.07;2.77;;;;;;;9.19;100.00;99777.00;6133132;28;20235;-77
2024/04/02 00:50:33;;;;;;;4.00;3.57;;;;;;;9.17;100.00;99769.09;6132530;28;20624;-76
2024/04/02 00:53:54;;;;;;;3.93;2.43;;;;;;;9.18;100.00;99773.44;6125498;28;20231;-77
2024/04/02 00:57:16;;;;;;;6.67;3.87;;;;;;;9.17;100.00;99776.31;6115187;28;20235;-76
2024/04/02 01:00:36;;;;;;;6.17;3.20;;;;;;;9.16;100.00;99777.28;6128891;28;20246;-75
2024/04/02 01:03:59;;;;;;;4.70;2.57;;;;;;;9.16;100.00;99780.81;6105440;28;20731;-76
2024/04/02 01:07:21;;;;;;;2.60;2.13;;;;;;;9.15;100.00;99781.00;6115037;28;20234;-76
2024/04/02 01:10:40;;;;;;;12.77;2.77;;;;;;;9.13;100.00;99781.16;6131243;28;20223;-75
2024/04/02 01:14:01;;;;;;;6.53;3.30;;;;;;;9.16;100.00;99785.34;6119757;28;20326;-76
2024/04/02 01:17:22;;;;;;;3.93;2.83;;;;;;;9.14;100.00;99785.50;6131151;28;20228;-76
2024/04/02 01:20:44;;;;;;;8.27;3.73;;;;;;;9.14;100.00;99796.28;6126730;28;20557;-76
2024/04/02 01:24:05;;;;;;;6.23;3.10;;;;;;;9.12;100.00;99782.13;6131136;28;20752;-75
2024/04/02 01:27:28;;;;;;;11.73;3.37;;;;;;;9.11;100.00;99798.44;6111504;28;20227;-75
2024/04/02 01:30:49;;;;;;;3.10;2.80;;;;;;;9.08;100.00;99796.88;6128492;28;20325;-76
2024/04/02 01:34:10;;;;;;;4.47;2.87;;;;;;;9.13;100.00;99793.75;6133570;28;20330;-77
2024/04/02 01:37:31;;;;;;;4.37;2.20;;;;;;;9.08;100.00;99796.03;6109935;28;20235;-77
2024/04/02 01:40:52;;;;;;;4.43;1.90;;;;;;;9.04;100.00;99800.88;6129103;28;20236;-77
2024/04/02 01:44:14;;;;;;;2.80;2.43;;;;;;;9.00;100.00;99790.59;6132221;28;20227;-77
2024/04/02 01:47:35;;;;;;;4.50;2.63;;;;;;;9.04;100.00;99792.81;6124056;28;20254;-76
2024/04/02 01:50:56;;;;;;;2.93;2.63;;;;;;;8.99;100.00;99789.72;6129890;28;20521;-76
2024/04/02 01:54:16;;;;;;;3.00;2.77;;;;;;;9.07;100.00;99795.22;6130568;28;20313;-75
2024/04/02 01:57:37;;;;;;;3.30;2.57;;;;;;;9.01;100.00;99800.34;6123296;28;20262;-75
2024/04/02 02:00:58;;;;;;;2.87;2.27;;;;;;;9.05;100.00;99797.22;6127197;28;20258;-77
2024/04/02 02:04:19;;;;;;;10.33;4.17;;;;;;;9.03;100.00;99801.91;6142967;28;20232;-76
2024/04/02 02:07:40;;;;;;;2.77;2.30;;;;;;;9.07;100.00;99797.91;6115282;28;20617;-76
2024/04/02 02:11:03;;;;;;;3.77;2.63;;;;;;;9.09;100.00;99832.69;6131058;28;20243;-77
2024/04/02 02:14:24;;;;;;;5.57;3.27;;;;;;;9.13;100.00;99812.56;6135283;28;20799;-77
2024/04/02 02:17:47;;;;;;;2.57;2.37;;;;;;;9.12;100.00;99813.53;6110549;28;20242;-76
2024/04/02 02:21:07;;;;;;;7.00;2.40;;;;;;;9.12;100.00;99810.84;6129789;28;20238;-76
2024/04/02 02:24:27;;;;;;;6.53;2.47;;;;;;;9.15;100.00;99815.94;6138519;28;20228;-76
2024/04/02 02:27:48;;;;;;;3.40;2.20;;;;;;;9.09;100.00;99817.41;6121481;28;20255;-76
2024/04/02 02:31:09;;;;;;;3.90;2.90;;;;;;;9.10;100.00;99802.94;6127669;28;20525;-76
2024/04/02 02:34:30;;;;;;;2.53;2.07;;;;;;;9.12;100.00;99824.31;6140948;28;20238;-75
2024/04/02 02:37:51;;;;;;;3.40;3.07;;;;;;;9.04;100.00;99819.69;6107680;28;20353;-76
2024/04/02 02:41:11;;;;;;;4.20;3.33;;;;;;;9.05;100.00;99818.72;6138287;28;20333;-76
2024/04/02 02:44:32;;;;;;;7.23;3.77;;;;;;;8.99;100.00;99821.97;6145752;28;20239;-74
2024/04/02 02:47:52;;;;;;;2.47;2.30;;;;;;;8.99;100.00;99819.28;6122394;28;20515;-75
2024/04/02 02:51:15;;;;;;;3.50;2.37;;;;;;;8.96;100.00;99822.31;6130398;28;20718;-76
2024/04/02 02:54:41;;;;;;;5.23;2.63;;;;;;;8.98;100.00;99823.00;6119549;28;20243;-76
2024/04/02 02:58:03;;;;;;;2.93;2.40;;;;;;;8.97;100.00;99828.53;6114047;28;22650;-76
2024/04/02 03:01:24;;;;;;;7.57;4.40;;;;;;;8.98;100.00;99808.72;6124587;28;20306;-75
2024/04/02 03:04:44;;;;;;;4.17;3.30;;;;;;;8.95;100.00;99825.97;6129326;28;20227;-75
2024/04/02 03:08:06;;;;;;;4.17;3.73;;;;;;;8.93;100.00;99833.34;6127437;28;20671;-76
2024/04/02 03:11:30;;;;;;;3.97;3.63;;;;;;;8.92;100.00;99838.88;6097410;28;20243;-76
2024/04/02 03:14:51;;;;;;;5.13;3.37;;;;;;;8.90;100.00;99830.13;6125902;28;20235;-75
2024/04/02 03:18:12;;;;;;;4.77;4.30;;;;;;;8.88;100.00;99842.88;6124072;28;20235;-77
2024/04/02 03:21:35;;;;;;;5.00;4.60;;;;;;;8.93;100.00;99838.72;6131055;28;20605;-77
2024/04/02 03:24:56;;;;;;;4.70;3.53;;;;;;;8.91;100.00;99846.09;6131526;28;20238;-77
2024/04/02 03:28:18;;;;;;;3.77;3.47;;;;;;;8.90;100.00;99843.56;6117299;28;20231;-77
2024/04/02 03:31:39;;;;;;;5.53;4.27;;;;;;;8.91;100.00;99851.47;6118067;28;20231;-76
2024/04/02 03:34:59;;;;;;;4.93;3.80;;;;;;;8.96;100.00;99843.81;6129727;28;20322;-76
2024/04/02 03:38:20;;;;;;;6.07;4.43;;;;;;;8.96;100.00;99846.50;6135235;28;20258;-75
2024/04/02 03:41:43;;;;;;;4.80;4.37;;;;;;;8.96;100.00;99854.56;6130190;28;20231;-76
2024/04/02 03:45:05;;;;;;;4.50;3.83;;;;;;;8.99;100.00;99859.63;6126129;28;20247;-76
2024/04/02 03:48:26;;;;;;;4.20;3.40;;;;;;;8.94;100.00;99867.31;6126873;28;20227;-75
2024/04/02 03:51:46;;;;;;;4.50;3.67;;;;;;;8.97;100.00;99858.91;6139792;28;20702;-75
2024/04/02 03:55:07;;;;;;;4.33;3.90;;;;;;;9.01;100.00;99862.19;6125872;28;20262;-74
2024/04/02 03:58:30;;;;;;;5.47;3.53;;;;;;;9.02;100.00;99870.06;6135871;28;20242;-76
2024/04/02 04:01:51;;;;;;;6.90;3.60;;;;;;;9.05;100.00;99874.31;6130293;28;20245;-74
2024/04/02 04:05:11;;;;;;;6.07;3.73;;;;;;;9.00;100.00;99880.13;6140669;28;20232;-76
2024/04/02 04:08:33;;;;;;;5.50;4.10;;;;;;;9.08;100.00;99882.91;6139969;28;20258;-74
2024/04/02 04:11:54;;;;;;;8.13;3.87;;;;;;;9.01;100.00;99887.19;6120172;28;20235;-75
2024/04/02 04:15:17;;;;;;;5.73;4.10;;;;;;;9.01;100.00;99883.69;6136861;28;20616;-75
2024/04/02 04:18:38;;;;;;;4.43;4.03;;;;;;;9.00;100.00;99890.03;6141660;28;20318;-76
2024/04/02 04:21:58;;;;;;;4.80;4.33;;;;;;;9.00;100.00;99892.72;6133899;28;20625;-75
2024/04/02 04:25:19;;;;;;;4.77;4.37;;;;;;;8.97;100.00;99895.72;6137128;28;20593;-76
2024/04/02 04:28:40;;;;;;;5.57;3.97;;;;;;;9.01;100.00;99894.44;6147170;28;20231;-76
2024/04/02 04:32:03;;;;;;;3.67;3.37;;;;;;;8.97;100.00;99901.94;6137514;28;20254;-75
2024/04/02 04:35:24;;;;;;;4.47;4.03;;;;;;;8.94;100.00;99906.75;6136614;28;20260;-76
2024/04/02 04:38:45;;;;;;;5.07;3.37;;;;;;;8.93;100.00;99889.78;6141833;28;20243;-75
2024/04/02 04:42:06;;;;;;;3.97;3.67;;;;;;;8.94;100.00;99893.31;6123053;28;20242;-74
2024/04/02 04:45:26;;;;;;;4.40;3.93;;;;;;;8.91;100.00;99899.03;6130498;28;20227;-76
2024/04/02 04:48:48;;;;;;;6.57;5.27;;;;;;;8.92;100.00;99901.56;6138754;28;20239;-76
2024/04/02 04:52:09;;;;;;;5.30;4.80;;;;;;;8.92;100.00;99915.00;6096917;28;20786;-76
2024/04/02 04:55:31;;;;;;;7.30;4.97;;;;;;;8.91;100.00;99915.97;6112430;28;20222;-76
2024/04/02 04:58:52;;;;;;;5.23;4.80;;;;;;;9.03;100.00;99920.19;6136580;28;20361;-76
2024/04/02 05:02:12;;;;;;;4.67;4.27;;;;;;;8.97;100.00;99914.53;6128244;28;20617;-75
2024/04/02 05:05:34;;;;;;;6.50;4.80;;;;;;;8.98;100.00;99926.97;6135704;28;20827;-76
2024/04/02 05:08:54;;;;;;;7.40;4.40;;;;;;;8.99;100.00;99934.88;6134881;28;20223;-76
2024/04/02 05:12:15;;;;;;;9.37;5.60;;;;;;;8.96;100.00;99931.66;6113432;28;20326;-76
2024/04/02 05:15:35;;;;;;;5.43;4.70;;;;;;;8.97;100.00;99936.88;6134113;28;20901;-75
2024/04/02 05:18:57;;;;;;;6.30;5.50;;;;;;;8.97;100.00;99933.38;6128864;28;20314;-77
2024/04/02 05:22:19;;;;;;;6.80;6.03;;;;;;;9.01;100.00;99940.94;6129882;28;20246;-75
2024/04/02 05:25:40;;;;;;;5.07;4.67;;;;;;;8.92;100.00;99944.56;6129399;28;20231;-76
2024/04/02 05:29:01;;;;;;;5.97;4.90;;;;;;;8.99;100.00;99939.44;6115869;28;20235;-76
2024/04/02 05:32:21;;;;;;;5.90;5.40;;;;;;;8.97;100.00;99934.19;6123271;28;20273;-77
2024/04/02 05:35:42;;;;;;;5.87;5.33;;;;;;;9.01;100.00;99942.81;6139115;28;20239;-78
2024/04/02 05:39:03;;;;;;;8.00;5.17;;;;;;;9.14;100.00;99945.97;6123383;28;20235;-75
2024/04/02 05:42:25;;;;;;;6.83;5.80;;;;;;;9.01;100.00;99958.94;6123950;28;20232;-75
2024/04/02 05:45:45;;;;;;;10.50;6.43;;;;;;;9.05;100.00;99960.34;6128882;28;20231;-75
2024/04/02 05:49:06;;;;;;;6.80;5.53;;;;;;;8.95;100.00;99955.00;6118663;28;20330;-75
2024/04/02 05:52:26;;;;;;;6.57;5.10;;;;;;;9.03;100.00;99960.50;6124959;28;20700;-73
2024/04/02 05:55:48;;;;;;;6.83;6.17;;;;;;;9.06;100.00;99967.38;6128244;28;20725;-73
2024/04/02 05:59:08;;;;;;;7.53;5.50;;;;;;;9.12;100.00;99967.66;6115670;28;20228;-76
2024/04/02 06:02:28;;;;;;;7.30;6.60;;;;;;;9.18;100.00;99974.28;6114194;28;20235;-76
2024/04/02 06:05:49;;;;;;;7.57;6.20;;;;;;;9.14;100.00;99981.78;6129672;28;20238;-76
2024/04/02 06:09:09;;;;;;;7.33;5.73;;;;;;;9.13;100.00;99982.78;6119662;28;20239;-74
2024/04/02 06:12:32;;;;;;;6.63;6.03;;;;;;;9.17;100.00;99960.00;6132089;28;20235;-74
2024/04/02 06:15:51;;;;;;;10.20;6.73;;;;;;;9.17;100.00;99981.50;6124453;28;20223;-74
2024/04/02 06:19:12;;;;;;;7.77;5.90;;;;;;;9.17;100.00;99978.81;6119632;28;20236;-74
2024/04/02 06:22:35;;;;;;;7.10;6.10;;;;;;;9.16;100.00;99979.78;6123264;28;20231;-77
2024/04/02 06:25:55;;;;;;;6.47;5.87;;;;;;;9.18;100.00;99983.19;6122916;28;20326;-76
2024/04/02 06:29:18;;;;;;;6.47;5.93;;;;;;;9.26;100.00;99988.66;6126586;28;20515;-74
2024/04/02 06:32:39;;;;;;;7.03;5.90;;;;;;;9.26;100.00;99979.75;6123149;28;20242;-73
2024/04/02 06:36:00;;;;;;;6.43;5.83;;;;;;;9.33;100.00;99988.91;6109987;28;20236;-75
2024/04/02 06:39:21;;;;;;;7.47;6.53;;;;;;;9.40;100.00;99995.38;6128054;28;20255;-77
2024/04/02 06:42:41;;;;;;;9.60;6.67;;;;;;;9.25;100.00;99997.72;6108099;28;20310;-76
2024/04/02 06:46:04;;;;;;;6.17;5.67;;;;;;;9.25;100.00;99999.56;6105925;28;20224;-73
2024/04/02 06:49:25;;;;;;;6.60;6.00;;;;;;;9.31;100.00;99996.28;6124496;28;20306;-74
2024/04/02 06:52:44;;;;;;;7.40;6.70;;;;;;;9.32;100.00;100000.69;6125889;28;20238;-74
2024/04/02 06:56:06;;;;;;;7.17;5.93;;;;;;;9.34;100.00;99996.84;6129201;28;20501;-74
2024/04/02 06:59:27;;;;;;;8.57;6.30;;;;;;;9.29;100.00;100004.50;6110798;28;20260;-76
2024/04/02 07:02:49;;;;;;;5.43;4.93;;;;;;;9.32;100.00;99992.59;6115559;28;21677;-72
2024/04/02 07:06:10;;;;;;;6.50;5.33;;;;;;;9.30;100.00;100011.59;6132402;28;20231;-72
2024/04/02 07:09:33;;;;;;;5.80;5.27;;;;;;;9.33;100.00;100013.97;6138611;28;20235;-72
2024/04/02 07:12:54;;;;;;;6.87;6.00;;;;;;;9.40;100.00;100012.38;6132658;28;20235;-71
2024/04/02 07:16:15;;;;;;;6.87;6.27;;;;;;;9.44;100.00;100019.16;6129873;28;20260;-74
2024/04/02 07:19:36;;;;;;;5.33;4.80;;;;;;;9.30;100.00;100013.44;6140418;28;20284;-77
2024/04/02 07:22:57;;;;;;;9.17;7.60;;;;;;;9.38;100.00;100018.91;6136492;28;20317;-72
2024/04/02 07:26:19;;;;;;;7.00;6.40;;;;;;;9.42;100.00;100020.28;6114152;28;20303;-73
2024/04/02 07:29:40;;;;;;;7.77;7.07;;;;;;;9.40;100.00;100023.13;6110324;28;20232;-73
2024/04/02 07:33:01;;;;;;;6.83;6.20;;;;;;;9.40;100.00;100028.53;6127373;28;20239;-72
2024/04/02 07:36:23;;;;;;;7.90;6.17;;;;;;;9.42;100.00;100034.59;6140967;28;20234;-73
2024/04/02 07:39:44;;;;;;;6.63;5.73;;;;;;;9.45;100.00;100038.84;6136164;28;20242;-72
2024/04/02 07:43:06;;;;;;;24.23;6.67;;;;;;;9.53;100.00;100036.25;6127878;28;20242;-72
2024/04/02 07:46:26;;;;;;;9.30;6.20;;;;;;;9.55;100.00;100029.69;6121851;28;20227;-71
2024/04/02 07:49:46;;;;;;;7.47;6.03;;;;;;;9.54;100.00;100037.91;6135664;28;20232;-72
2024/04/02 07:53:09;;;;;;;6.17;5.67;;;;;;;9.59;100.00;100057.16;6136713;28;20674;-73
2024/04/02 07:56:29;;;;;;;10.17;6.20;;;;;;;9.60;100.00;100053.47;6132605;28;20329;-72
2024/04/02 07:59:50;;;;;;;5.87;4.63;;;;;;;9.55;100.00;100050.38;6134931;28;20278;-71
2024/04/02 08:03:11;;;;;;;5.77;5.27;;;;;;;9.55;100.00;100069.22;6127272;28;20617;-72
2024/04/02 08:06:32;;;;;;;5.13;4.67;;;;;;;9.63;100.00;100059.41;6135945;28;20227;-72
2024/04/02 08:09:53;;;;;;;9.67;5.93;;;;;;;9.61;100.00;100072.16;6136664;28;20222;-72
2024/04/02 08:13:14;;;;;;;4.90;4.50;;;;;;;9.65;100.00;100078.94;6138157;28;20227;-72
2024/04/02 08:16:34;;;;;;;8.37;6.70;;;;;;;9.80;100.00;100079.28;6133544;28;20243;-71
2024/04/02 08:19:55;;;;;;;7.60;5.97;;;;;;;9.72;100.00;100079.16;6134539;28;20239;-71
2024/04/02 08:23:16;;;;;;;7.73;6.43;;;;;;;9.72;100.00;100086.41;6122141;28;20231;-73
2024/04/02 08:26:37;;;;;;;5.33;4.83;;;;;;;9.79;100.00;100092.88;6134940;28;20771;-73
2024/04/02 08:29:58;;;;;;;6.00;5.47;;;;;;;9.81;100.00;100091.72;6130161;28;20250;-72
2024/04/02 08:33:18;;;;;;;5.37;4.67;;;;;;;9.86;100.00;100081.38;6130177;28;20238;-72
2024/04/02 08:36:39;;;;;;;5.23;4.73;;;;;;;9.97;100.00;100096.47;6118247;28;20397;-73
2024/04/02 08:40:00;;;;;;;7.17;5.23;;;;;;;10.09;100.00;100087.16;6133651;28;20235;-73
2024/04/02 08:43:22;;;;;;;6.93;4.87;;;;;;;10.17;100.00;100106.97;6130064;28;20322;-72
2024/04/02 08:46:44;;;;;;;4.30;3.90;;;;;;;10.38;100.00;100120.16;6123038;28;20227;-74
2024/04/02 08:50:08;;;;;;;5.87;4.67;;;;;;;10.48;100.00;100099.34;6129967;28;20232;-71
2024/04/02 08:53:28;;;;;;;5.80;5.23;;;;;;;10.78;100.00;100107.06;6134244;28;20227;-73
2024/04/02 08:56:49;;;;;;;10.10;5.37;;;;;;;11.26;100.00;100096.56;6131434;28;20227;-72
2024/04/02 09:00:12;;;;;;;5.70;4.63;;;;;;;11.59;100.00;100099.47;6128151;28;20543;-72
2024/04/02 09:03:35;;;;;;;4.93;4.53;;;;;;;11.41;100.00;100102.22;6122016;28;20326;-73
2024/04/02 09:06:56;;;;;;;6.33;2.60;;;;;;;11.08;100.00;100120.06;6128348;28;20315;-73
2024/04/02 09:10:16;;;;;;;5.20;4.00;;;;;;;11.15;100.00;100102.25;6136611;28;20227;-72
2024/04/02 09:13:38;;;;;;;4.20;3.90;;;;;;;11.38;100.00;100121.44;6125565;28;20334;-73
2024/04/02 09:16:59;;;;;;;3.77;3.57;;;;;;;11.08;100.00;100130.00;6118088;28;20223;-73
2024/04/02 09:20:20;;;;;;;5.07;3.33;;;;;;;11.09;100.00;100137.97;6125210;28;20235;-71
2024/04/02 09:23:41;;;;;;;3.90;3.03;;;;;;;11.14;100.00;100146.41;6116025;28;20774;-76
2024/04/02 09:27:01;;;;;;;4.27;3.97;;;;;;;11.18;100.00;100161.28;6126673;28;20223;-74
2024/04/02 09:30:24;;;;;;;3.80;3.47;;;;;;;11.35;100.00;100150.63;6124837;28;20290;-73
2024/04/02 09:33:49;;;;;;;4.30;3.10;;;;;;;11.28;100.00;100148.53;6114211;28;20239;-74
2024/04/02 09:37:15;;;;;;;3.63;3.43;;;;;;;11.09;100.00;100146.06;6123978;28;20223;-79
2024/04/02 09:40:36;;;;;;;4.90;2.93;;;;;;;11.38;100.00;100147.59;6125337;28;20247;-75
2024/04/02 09:43:58;;;;;;;5.13;3.43;;;;;;;11.69;100.00;100146.09;6134302;28;20235;-78
2024/04/02 09:47:20;;;;;;;3.13;2.93;;;;;;;11.80;100.00;100149.38;6108044;28;20285;-72
2024/04/02 09:50:42;;;;;;;4.17;3.53;;;;;;;11.58;100.00;100143.63;6134350;28;20227;-72
2024/04/02 09:54:04;;;;;;;4.80;2.90;;;;;;;11.47;100.00;100152.88;6126457;28;20436;-73
2024/04/02 09:57:26;;;;;;;3.83;3.53;;;;;;;11.51;100.00;100162.34;6126626;28;20236;-81
2024/04/02 10:00:52;;;;;;;3.77;2.87;;;;;;;11.84;100.00;100161.56;6122256;28;20314;-71
2024/04/02 10:04:15;;;;;;;3.70;2.70;;;;;;;11.94;100.00;100166.81;6122085;28;20520;-74
2024/04/02 10:07:41;;;;;;;4.83;2.93;;;;;;;12.02;100.00;100158.75;6125735;28;20609;-74
2024/04/02 10:11:03;;;;;;;3.57;3.27;;;;;;;11.87;100.00;100184.66;6122126;28;21619;-72
2024/04/02 10:14:26;;;;;;;3.17;2.97;;;;;;;11.95;100.00;100163.13;6133659;28;20242;-73
2024/04/02 10:17:56;;;;;;;3.77;3.13;;;;;;;12.25;100.00;100161.69;6119345;28;20231;-78
2024/04/02 10:21:17;;;;;;;2.77;2.57;;;;;;;12.64;100.00;100173.63;6101848;28;20258;-71
2024/04/02 10:24:39;;;;;;;4.17;3.07;;;;;;;12.95;100.00;100163.00;6127025;28;20258;-74
2024/04/02 10:28:03;;;;;;;3.43;3.03;;;;;;;13.81;100.00;100164.09;6114862;28;20215;-80
2024/04/02 10:31:34;;;;;;;2.20;1.90;;;;;;;14.13;100.00;100158.53;6116133;28;20555;-74
2024/04/02 10:34:54;;;;;;;4.93;2.23;;;;;;;14.12;100.00;100151.44;6135392;28;20239;-74
2024/04/02 10:38:18;;;;;;;6.87;2.70;;;;;;;14.66;100.00;100152.34;6133912;28;20904;-72
2024/04/02 10:41:40;;;;;;;3.60;2.03;;;;;;;14.45;100.00;100160.25;6122753;28;20239;-72
2024/04/02 10:45:02;;;;;;;2.73;1.63;;;;;;;14.50;100.00;100161.41;6131462;28;20227;-73
2024/04/02 10:48:25;;;;;;;3.77;2.17;;;;;;;13.71;100.00;100169.69;6132144;28;20235;-76
2024/04/02 10:51:46;;;;;;;1.70;1.60;;;;;;;13.65;100.00;100164.97;6117914;28;20223;-75
2024/04/02 10:55:08;;;;;;;2.43;1.67;;;;;;;13.29;100.00;100172.66;6119578;28;20223;-76
2024/04/02 10:58:30;;;;;;;4.60;1.67;;;;;;;13.25;100.00;100157.75;6124336;28;20231;-74
2024/04/02 11:01:55;;;;;;;4.77;1.93;;;;;;;13.76;100.00;100164.63;6110006;28;20239;-77
2024/04/02 11:05:17;;;;;;;2.90;1.40;;;;;;;14.34;100.00;100166.94;6110566;28;20231;-74
2024/04/02 11:08:38;;;;;;;3.53;2.43;;;;;;;13.97;100.00;100169.44;6124993;28;20270;-77
2024/04/02 11:11:58;;;;;;;1.60;1.50;;;;;;;13.77;100.00;100179.84;6117043;28;20235;-73
2024/04/02 11:15:21;;;;;;;4.00;2.00;;;;;;;13.68;100.00;100175.47;6116972;28;20243;-75
2024/04/02 11:18:42;;;;;;;5.30;2.47;;;;;;;14.25;100.00;100185.06;6119531;28;20235;-77
2024/04/02 11:25:41;;;;;;;1.90;1.77;;;;;;;14.39;100.00;100192.47;6110826;28;20639;-77
2024/04/02 11:29:07;;;;;;;1.57;1.47;;;;;;;13.19;100.00;100182.81;6100761;28;20243;-76
2024/04/02 11:32:30;;;;;;;3.50;2.97;;;;;;;13.27;100.00;100192.78;6116439;28;20235;-75
2024/04/02 11:35:53;;;;;;;4.80;2.50;;;;;;;14.15;100.00;100189.00;6122809;28;20309;-74
2024/04/02 11:39:15;;;;;;;4.07;2.23;;;;;;;14.10;100.00;100197.66;6108031;28;20239;-73
2024/04/02 11:42:36;;;;;;;2.97;2.03;;;;;;;13.58;100.00;100194.59;6113919;28;20783;-75
2024/04/02 11:45:57;;;;;;;1.70;1.60;;;;;;;13.46;100.00;100197.84;6110209;28;20733;-74
2024/04/02 11:49:19;;;;;;;3.03;1.87;;;;;;;13.27;100.00;100192.78;6133915;28;20220;-78
2024/04/02 11:52:52;;;;;;;3.20;1.80;;;;;;;14.06;100.00;100203.66;6116238;28;20227;-72
2024/04/02 11:56:16;;;;;;;3.63;1.70;;;;;;;13.46;100.00;100206.81;6101792;28;20231;-72
2024/04/02 12:03:18;;;;;;;2.47;2.03;;;;;;;12.97;100.00;100209.66;6102827;28;20231;-72
2024/04/02 12:06:40;;;;;;;4.20;1.90;;;;;;;13.03;100.00;100233.34;6123568;28;20608;-76
2024/04/02 12:10:02;;;;;;;6.33;2.37;;;;;;;13.20;100.00;100226.97;6135158;28;20227;-70
2024/04/02 12:13:23;;;;;;;4.43;2.00;;;;;;;14.08;100.00;100231.41;6135112;28;20238;-77
2024/04/02 12:16:44;;;;;;;1.93;1.40;;;;;;;14.02;100.00;100235.66;6116380;28;20231;-72
2024/04/02 12:20:07;;;;;;;2.13;1.50;;;;;;;14.71;100.00;100234.03;6129761;28;20526;-74
2024/04/02 12:23:28;;;;;;;2.67;1.43;;;;;;;13.42;100.00;100237.97;6133742;28;20255;-74
2024/04/02 12:26:49;;;;;;;6.33;1.90;;;;;;;12.97;100.00;100248.41;6136150;28;20318;-72
2024/04/02 12:30:11;;;;;;;3.23;1.70;;;;;;;12.09;100.00;100262.47;6133700;28;20329;-71
2024/04/02 12:33:31;;;;;;;2.93;1.70;;;;;;;11.91;100.00;100269.78;6093418;28;20232;-77
2024/04/02 12:36:52;;;;;;;2.77;2.50;;;;;;;11.60;100.00;100277.47;6116490;28;20235;-74
2024/04/02 12:40:15;;;;;;;3.43;2.83;;;;;;;11.54;100.00;100278.09;6133835;28;20575;-78
2024/04/02 12:43:35;;;;;;;2.67;2.37;;;;;;;11.66;100.00;100279.56;6132468;28;20235;-76
2024/04/02 12:46:55;;;;;;;2.67;2.10;;;;;;;11.96;100.00;100287.22;6126414;28;20232;-77
2024/04/02 12:50:17;;;;;;;2.30;2.10;;;;;;;11.72;100.00;100276.22;6126474;28;20504;-75
2024/04/02 12:53:37;;;;;;;2.10;2.00;;;;;;;11.92;100.00;100272.34;6132162;28;20236;-75
2024/04/02 12:56:59;;;;;;;2.83;2.63;;;;;;;12.13;100.00;100273.78;6116660;28;20227;-74
2024/04/02 13:00:19;;;;;;;2.70;2.50;;;;;;;11.72;100.00;100283.50;6117807;28;20266;-74
2024/04/02 13:03:41;;;;;;;7.20;2.60;;;;;;;11.64;100.00;100281.53;6135755;28;20239;-75
2024/04/02 13:07:01;;;;;;;2.43;2.20;;;;;;;12.06;100.00;100272.75;6127176;28;20228;-74
2024/04/02 13:10:23;;;;;;;3.40;2.50;;;;;;;12.46;100.00;100276.47;6136186;28;20234;-73
2024/04/02 13:13:44;;;;;;;1.93;1.80;;;;;;;12.86;100.00;100275.75;6133779;28;20239;-75
2024/04/02 13:17:05;;;;;;;9.33;3.10;;;;;;;14.09;100.00;100271.91;6116539;28;20278;-73
2024/04/02 13:20:29;;;;;;;1.60;1.50;;;;;;;12.43;100.00;100275.97;6128862;28;20232;-73
2024/04/02 13:23:50;;;;;;;2.37;2.17;;;;;;;12.16;100.00;100282.41;6135494;28;20506;-73
2024/04/02 13:27:11;;;;;;;4.33;2.90;;;;;;;11.78;100.00;100307.16;6121103;28;20235;-75
2024/04/02 13:30:32;;;;;;;3.83;2.70;;;;;;;11.63;100.00;100282.56;6129879;28;20602;-72
2024/04/02 13:33:54;;;;;;;2.37;2.23;;;;;;;11.67;100.00;100272.31;6130795;28;20668;-76
2024/04/02 13:37:15;;;;;;;2.47;2.17;;;;;;;11.45;100.00;100270.09;6130331;28;20232;-74
2024/04/02 13:40:40;;;;;;;2.70;2.00;;;;;;;11.38;100.00;100272.56;6127092;28;20239;-73
2024/04/02 13:44:00;;;;;;;3.93;2.20;;;;;;;11.53;100.00;100286.34;6131681;28;20227;-74
2024/04/02 13:47:22;;;;;;;2.73;2.43;;;;;;;11.72;100.00;100305.09;6125299;28;20321;-75
2024/04/02 13:50:42;;;;;;;2.53;1.97;;;;;;;11.78;100.00;100310.72;6113772;28;20281;-72
2024/04/02 13:54:04;;;;;;;2.23;1.83;;;;;;;11.69;100.00;100318.91;6111116;28;20358;-72
2024/04/02 13:57:23;;;;;;;3.23;2.67;;;;;;;11.69;100.00;100316.22;6121469;28;20335;-75
2024/04/02 14:00:44;;;;;;;2.63;2.10;;;;;;;11.69;100.00;100319.75;6122381;28;20242;-69
2024/04/02 14:04:07;;;;;;;4.00;2.77;;;;;;;11.51;100.00;100339.66;6120462;28;20234;-76
2024/04/02 14:07:31;;;;;;;4.80;3.13;;;;;;;11.39;100.00;100335.50;6110996;28;20224;-73
2024/04/02 14:10:53;;;;;;;4.60;2.10;;;;;;;11.50;100.00;100337.94;6123154;28;20247;-74
2024/04/02 14:14:13;;;;;;;2.07;1.83;;;;;;;11.31;100.00;100338.94;6124147;28;20235;-74
2024/04/02 14:17:33;;;;;;;1.63;1.53;;;;;;;11.23;100.00;100339.72;6118247;28;20231;-74
2024/04/02 14:20:57;;;;;;;1.83;1.70;;;;;;;11.22;100.00;100334.50;6126569;28;20235;-74
2024/04/02 14:24:18;;;;;;;1.63;1.53;;;;;;;11.09;100.00;100342.97;6125269;28;20235;-73
2024/04/02 14:27:38;;;;;;;2.57;1.70;;;;;;;11.18;100.00;100335.81;6120885;28;20223;-73
2024/04/02 14:31:03;;;;;;;4.53;2.27;;;;;;;11.32;100.00;100337.09;6121870;28;20239;-74
2024/04/02 14:34:24;;;;;;;1.73;1.60;;;;;;;11.38;100.00;100344.59;6128486;28;20230;-75
2024/04/02 14:37:46;;;;;;;1.83;1.73;;;;;;;11.32;100.00;100326.31;6115086;28;20788;-74
2024/04/02 14:41:08;;;;;;;1.90;1.80;;;;;;;11.28;100.00;100332.00;6130944;28;20338;-75
2024/04/02 14:44:28;;;;;;;4.27;1.97;;;;;;;11.17;100.00;100343.03;6121641;28;20234;-74
2024/04/02 14:47:49;;;;;;;3.30;1.67;;;;;;;11.01;100.00;100323.16;6116947;28;20628;-74
2024/04/02 14:51:10;;;;;;;2.70;2.27;;;;;;;10.88;100.00;100345.09;6102895;28;20239;-74
2024/04/02 14:54:32;;;;;;;1.33;1.17;;;;;;;10.78;100.00;100355.09;6125839;28;20243;-75
2024/04/02 14:57:54;;;;;;;1.23;1.20;;;;;;;10.66;100.00;100345.47;6111025;28;20227;-75
2024/04/02 15:01:17;;;;;;;1.90;0.90;;;;;;;10.36;100.00;100356.56;6120596;28;20923;-73
2024/04/02 15:04:41;;;;;;;2.40;0.93;;;;;;;10.35;100.00;100357.53;6122722;28;20259;-75
2024/04/02 15:08:01;;;;;;;1.03;0.83;;;;;;;10.37;100.00;100371.69;6112856;28;20258;-74
2024/04/02 15:11:23;;;;;;;1.37;1.27;;;;;;;10.40;100.00;100361.50;6128481;28;20251;-73
2024/04/02 15:14:43;;;;;;;1.77;1.00;;;;;;;10.45;100.00;100364.59;6129395;28;20565;-73
2024/04/02 15:18:06;;;;;;;4.23;1.07;;;;;;;10.35;100.00;100363.78;6124427;28;20232;-74
2024/04/02 15:21:26;;;;;;;1.20;1.10;;;;;;;10.21;100.00;100364.25;6126726;28;20629;-73
2024/04/02 15:24:47;;;;;;;1.57;1.13;;;;;;;10.12;100.00;100373.19;6112449;28;20282;-73
2024/04/02 15:28:09;;;;;;;2.50;1.93;;;;;;;10.17;100.00;100373.63;6125853;28;20231;-73
2024/04/02 15:31:30;;;;;;;5.53;1.90;;;;;;;10.13;100.00;100371.38;6120395;28;20238;-74
2024/04/02 15:34:51;;;;;;;5.23;3.77;;;;;;;10.40;100.00;100376.81;6128953;28;20262;-74
2024/04/02 15:38:12;;;;;;;2.97;1.60;;;;;;;10.27;100.00;100376.28;6117791;28;20232;-73
2024/04/02 15:41:33;;;;;;;2.70;1.50;;;;;;;10.34;100.00;100372.00;6133415;28;20230;-73